sensor_id;sensor_type;location;lat;lon;timestamp;pressure;altitude;pressure_sealevel;temperature;humidity
45941;BME280;31858;46.008;8.978;2022-07-03T00:09:37;94910.06;;;22.43;100.00
45941;BME280;31858;46.008;8.978;2022-07-03T00:19:39;94904.09;;;22.36;100.00
45941;BME280;31858;46.008;8.978;2022-07-03T00:29:43;94916.53;;;22.11;100.00
45941;BME280;31858;46.008;8.978;2022-07-03T00:39:45;94913.50;;;22.09;100.00
45941;BME280;31858;46.008;8.978;2022-07-03T00:49:51;94906.56;;;21.83;100.00
45941;BME280;31858;46.008;8.978;2022-07-03T00:59:53;94905.47;;;21.80;100.00
45941;BME280;31858;46.008;8.978;2022-07-03T01:10:04;94901.91;;;21.84;100.00
45941;BME280;31858;46.008;8.978;2022-07-03T01:20:08;94885.94;;;21.73;100.00
45941;BME280;31858;46.008;8.978;2022-07-03T01:30:11;94900.91;;;21.65;100.00
45941;BME280;31858;46.008;8.978;2022-07-03T01:40:14;94895.38;;;21.56;100.00
45941;BME280;31858;46.008;8.978;2022-07-03T01:50:21;94889.50;;;21.44;100.00
45941;BME280;31858;46.008;8.978;2022-07-03T02:00:23;94884.63;;;21.39;100.00
45941;BME280;31858;46.008;8.978;2022-07-03T02:10:29;94891.16;;;21.55;100.00
45941;BME280;31858;46.008;8.978;2022-07-03T02:20:35;94875.97;;;21.44;100.00
45941;BME280;31858;46.008;8.978;2022-07-03T02:30:42;94877.47;;;21.58;100.00
45941;BME280;31858;46.008;8.978;2022-07-03T02:40:55;94880.63;;;21.69;100.00
45941;BME280;31858;46.008;8.978;2022-07-03T02:51:05;94886.25;;;21.49;100.00
45941;BME280;31858;46.008;8.978;2022-07-03T03:01:18;94887.66;;;21.41;100.00
45941;BME280;31858;46.008;8.978;2022-07-03T03:11:38;94882.84;;;21.20;100.00
45941;BME280;31858;46.008;8.978;2022-07-03T03:21:54;94887.59;;;21.16;100.00
45941;BME280;31858;46.008;8.978;2022-07-03T03:31:59;94884.22;;;21.12;100.00
45941;BME280;31858;46.008;8.978;2022-07-03T03:42:00;94880.72;;;20.99;100.00
45941;BME280;31858;46.008;8.978;2022-07-03T03:52:04;94875.13;;;21.06;100.00
45941;BME280;31858;46.008;8.978;2022-07-03T04:02:07;94885.63;;;21.04;100.00
45941;BME280;31858;46.008;8.978;2022-07-03T04:12:11;94896.13;;;21.02;100.00
45941;BME280;31858;46.008;8.978;2022-07-03T04:22:12;94897.13;;;21.08;100.00
45941;BME280;31858;46.008;8.978;2022-07-03T04:32:15;94887.13;;;21.05;100.00
45941;BME280;31858;46.008;8.978;2022-07-03T04:42:17;94890.16;;;20.94;100.00
45941;BME280;31858;46.008;8.978;2022-07-03T04:52:21;94883.72;;;20.75;100.00
45941;BME280;31858;46.008;8.978;2022-07-03T05:02:23;94894.13;;;20.77;100.00
45941;BME280;31858;46.008;8.978;2022-07-03T05:12:26;94897.97;;;21.05;100.00
45941;BME280;31858;46.008;8.978;2022-07-03T05:22:27;94895.38;;;21.01;100.00
45941;BME280;31858;46.008;8.978;2022-07-03T05:32:30;94892.41;;;20.96;100.00
45941;BME280;31858;46.008;8.978;2022-07-03T05:42:32;94892.94;;;20.91;100.00
45941;BME280;31858;46.008;8.978;2022-07-03T05:52:35;94885.25;;;20.76;100.00
45941;BME280;31858;46.008;8.978;2022-07-03T06:02:37;94893.47;;;20.85;100.00
45941;BME280;31858;46.008;8.978;2022-07-03T06:12:40;94906.91;;;20.76;100.00
45941;BME280;31858;46.008;8.978;2022-07-03T06:22:42;94904.44;;;20.95;100.00
45941;BME280;31858;46.008;8.978;2022-07-03T06:32:46;94898.16;;;20.98;100.00
45941;BME280;31858;46.008;8.978;2022-07-03T06:42:47;94889.09;;;21.04;100.00
45941;BME280;31858;46.008;8.978;2022-07-03T06:52:50;94891.84;;;20.88;100.00
45941;BME280;31858;46.008;8.978;2022-07-03T07:02:52;94884.13;;;21.15;100.00
45941;BME280;31858;46.008;8.978;2022-07-03T07:12:55;94877.16;;;21.02;100.00
45941;BME280;31858;46.008;8.978;2022-07-03T07:22:56;94862.88;;;21.14;100.00
45941;BME280;31858;46.008;8.978;2022-07-03T07:32:59;94857.72;;;21.32;100.00
45941;BME280;31858;46.008;8.978;2022-07-03T07:43:01;94868.72;;;21.12;100.00
45941;BME280;31858;46.008;8.978;2022-07-03T07:53:04;94865.31;;;21.37;100.00
45941;BME280;31858;46.008;8.978;2022-07-03T08:03:06;94847.44;;;21.40;100.00
45941;BME280;31858;46.008;8.978;2022-07-03T08:13:26;94844.19;;;21.45;100.00
45941;BME280;31858;46.008;8.978;2022-07-03T08:23:28;94835.50;;;21.88;100.00
45941;BME280;31858;46.008;8.978;2022-07-03T08:33:31;94848.94;;;21.92;100.00
45941;BME280;31858;46.008;8.978;2022-07-03T08:43:33;94845.47;;;22.38;100.00
45941;BME280;31858;46.008;8.978;2022-07-03T08:53:37;94848.63;;;22.37;100.00
45941;BME280;31858;46.008;8.978;2022-07-03T09:03:38;94845.13;;;22.93;100.00
45941;BME280;31858;46.008;8.978;2022-07-03T09:13:42;94847.16;;;23.01;100.00
45941;BME280;31858;46.008;8.978;2022-07-03T09:23:44;94855.09;;;23.18;100.00
45941;BME280;31858;46.008;8.978;2022-07-03T09:33:53;94849.63;;;23.49;100.00
45941;BME280;31858;46.008;8.978;2022-07-03T09:43:55;94867.03;;;23.51;100.00
45941;BME280;31858;46.008;8.978;2022-07-03T09:54:00;94863.69;;;23.78;100.00
45941;BME280;31858;46.008;8.978;2022-07-03T10:04:12;94861.94;;;24.02;100.00
45941;BME280;31858;46.008;8.978;2022-07-03T10:14:17;94864.72;;;24.21;100.00
45941;BME280;31858;46.008;8.978;2022-07-03T10:24:25;94859.31;;;24.48;87.74
45941;BME280;31858;46.008;8.978;2022-07-03T10:34:28;94852.47;;;24.80;96.66
45941;BME280;31858;46.008;8.978;2022-07-03T10:44:30;94844.72;;;25.24;100.00
45941;BME280;31858;46.008;8.978;2022-07-03T10:54:50;94837.94;;;25.53;86.47
45941;BME280;31858;46.008;8.978;2022-07-03T11:05:10;94839.38;;;25.81;82.97
45941;BME280;31858;46.008;8.978;2022-07-03T11:15:30;94831.84;;;26.00;81.87
45941;BME280;31858;46.008;8.978;2022-07-03T11:25:38;94822.81;;;26.09;79.27
45941;BME280;31858;46.008;8.978;2022-07-03T11:35:49;94804.78;;;26.26;71.58
45941;BME280;31858;46.008;8.978;2022-07-03T11:45:52;94802.44;;;26.57;77.37
45941;BME280;31858;46.008;8.978;2022-07-03T11:55:57;94793.41;;;26.66;67.30
45941;BME280;31858;46.008;8.978;2022-07-03T12:05:59;94780.63;;;26.87;63.19
45941;BME280;31858;46.008;8.978;2022-07-03T12:16:04;94772.31;;;26.96;70.75
45941;BME280;31858;46.008;8.978;2022-07-03T12:26:06;94783.56;;;27.27;63.24
45941;BME280;31858;46.008;8.978;2022-07-03T12:36:09;94775.66;;;27.50;60.23
45941;BME280;31858;46.008;8.978;2022-07-03T12:46:16;94765.06;;;27.72;67.59
45941;BME280;31858;46.008;8.978;2022-07-03T12:56:19;94757.34;;;27.91;64.21
45941;BME280;31858;46.008;8.978;2022-07-03T13:06:22;94742.63;;;28.09;59.10
45941;BME280;31858;46.008;8.978;2022-07-03T13:16:26;94748.72;;;28.39;58.70
45941;BME280;31858;46.008;8.978;2022-07-03T13:26:28;94745.66;;;28.83;52.82
45941;BME280;31858;46.008;8.978;2022-07-03T13:36:31;94730.06;;;28.95;56.25
45941;BME280;31858;46.008;8.978;2022-07-03T13:46:33;94730.28;;;29.22;50.97
45941;BME280;31858;46.008;8.978;2022-07-03T13:56:36;94727.66;;;29.76;52.03
45941;BME280;31858;46.008;8.978;2022-07-03T14:06:38;94726.59;;;30.22;51.06
45941;BME280;31858;46.008;8.978;2022-07-03T14:16:41;94713.91;;;30.41;49.35
45941;BME280;31858;46.008;8.978;2022-07-03T14:26:43;94701.91;;;30.44;47.87
45941;BME280;31858;46.008;8.978;2022-07-03T14:37:04;94706.00;;;30.77;48.46
45941;BME280;31858;46.008;8.978;2022-07-03T14:47:05;94702.75;;;30.84;50.54
45941;BME280;31858;46.008;8.978;2022-07-03T14:57:18;94707.00;;;31.02;49.38
45941;BME280;31858;46.008;8.978;2022-07-03T15:07:21;94704.50;;;30.98;49.53
45941;BME280;31858;46.008;8.978;2022-07-03T15:17:24;94692.25;;;31.05;50.29
45941;BME280;31858;46.008;8.978;2022-07-03T15:27:28;94681.72;;;31.09;48.51
45941;BME280;31858;46.008;8.978;2022-07-03T15:37:43;94681.00;;;31.20;50.09
45941;BME280;31858;46.008;8.978;2022-07-03T15:47:52;94675.50;;;31.20;47.33
45941;BME280;31858;46.008;8.978;2022-07-03T15:58:02;94666.75;;;31.16;46.32
45941;BME280;31858;46.008;8.978;2022-07-03T16:08:06;94657.72;;;31.09;51.33
45941;BME280;31858;46.008;8.978;2022-07-03T16:18:10;94661.72;;;30.86;48.45
45941;BME280;31858;46.008;8.978;2022-07-03T16:28:12;94668.72;;;30.70;47.09
45941;BME280;31858;46.008;8.978;2022-07-03T16:38:19;94668.47;;;30.63;47.33
45941;BME280;31858;46.008;8.978;2022-07-03T16:48:28;94664.19;;;30.56;45.26
45941;BME280;31858;46.008;8.978;2022-07-03T16:58:31;94680.84;;;30.08;47.89
45941;BME280;31858;46.008;8.978;2022-07-03T17:08:35;94670.59;;;30.08;47.76
45941;BME280;31858;46.008;8.978;2022-07-03T17:18:42;94679.59;;;30.09;48.95
45941;BME280;31858;46.008;8.978;2022-07-03T17:28:49;94674.00;;;29.92;49.04
45941;BME280;31858;46.008;8.978;2022-07-03T17:38:56;94666.34;;;29.48;47.48
45941;BME280;31858;46.008;8.978;2022-07-03T17:48:58;94658.94;;;29.22;49.46
45941;BME280;31858;46.008;8.978;2022-07-03T17:59:02;94666.13;;;29.14;57.69
45941;BME280;31858;46.008;8.978;2022-07-03T18:09:09;94665.66;;;28.53;56.70
45941;BME280;31858;46.008;8.978;2022-07-03T18:19:13;94653.50;;;27.87;58.00
45941;BME280;31858;46.008;8.978;2022-07-03T18:29:16;94659.22;;;27.49;58.96
45941;BME280;31858;46.008;8.978;2022-07-03T18:39:21;94664.00;;;27.34;58.29
45941;BME280;31858;46.008;8.978;2022-07-03T18:49:23;94664.53;;;27.17;59.40
45941;BME280;31858;46.008;8.978;2022-07-03T18:59:30;94652.22;;;27.07;59.59
45941;BME280;31858;46.008;8.978;2022-07-03T19:09:35;94656.38;;;26.88;60.64
45941;BME280;31858;46.008;8.978;2022-07-03T19:19:38;94646.59;;;26.67;61.59
45941;BME280;31858;46.008;8.978;2022-07-03T19:29:41;94644.72;;;26.58;61.13
45941;BME280;31858;46.008;8.978;2022-07-03T19:39:44;94676.47;;;26.41;63.09
45941;BME280;31858;46.008;8.978;2022-07-03T19:49:46;94683.13;;;26.25;63.33
45941;BME280;31858;46.008;8.978;2022-07-03T19:59:49;94697.31;;;26.14;60.22
45941;BME280;31858;46.008;8.978;2022-07-03T20:09:51;94718.13;;;26.12;58.95
45941;BME280;31858;46.008;8.978;2022-07-03T20:19:54;94703.31;;;26.04;59.75
45941;BME280;31858;46.008;8.978;2022-07-03T20:29:56;94713.78;;;26.05;60.16
45941;BME280;31858;46.008;8.978;2022-07-03T20:39:59;94726.72;;;25.81;61.69
45941;BME280;31858;46.008;8.978;2022-07-03T20:50:00;94737.63;;;25.81;63.64
45941;BME280;31858;46.008;8.978;2022-07-03T21:00:04;94757.56;;;25.72;70.90
45941;BME280;31858;46.008;8.978;2022-07-03T21:10:07;94768.28;;;25.99;69.29
45941;BME280;31858;46.008;8.978;2022-07-03T21:20:11;94768.00;;;25.97;66.63
45941;BME280;31858;46.008;8.978;2022-07-03T21:30:12;94775.91;;;25.95;72.39
45941;BME280;31858;46.008;8.978;2022-07-03T21:40:15;94753.09;;;25.51;81.32
45941;BME280;31858;46.008;8.978;2022-07-03T21:50:20;94758.28;;;25.40;67.93
45941;BME280;31858;46.008;8.978;2022-07-03T22:00:23;94775.16;;;25.29;66.93
45941;BME280;31858;46.008;8.978;2022-07-03T22:10:25;94914.72;;;25.00;66.78
45941;BME280;31858;46.008;8.978;2022-07-03T22:20:28;95125.84;;;23.50;85.52
45941;BME280;31858;46.008;8.978;2022-07-03T22:30:30;95018.19;;;20.49;100.00
45941;BME280;31858;46.008;8.978;2022-07-03T22:40:33;95101.28;;;19.77;100.00
45941;BME280;31858;46.008;8.978;2022-07-03T22:50:35;95116.88;;;19.26;100.00
45941;BME280;31858;46.008;8.978;2022-07-03T23:00:38;94989.34;;;19.35;100.00
45941;BME280;31858;46.008;8.978;2022-07-03T23:10:39;94956.19;;;19.34;100.00
45941;BME280;31858;46.008;8.978;2022-07-03T23:20:44;94921.47;;;19.33;100.00
45941;BME280;31858;46.008;8.978;2022-07-03T23:30:46;94912.41;;;19.03;100.00
45941;BME280;31858;46.008;8.978;2022-07-03T23:40:49;94876.06;;;19.08;100.00
45941;BME280;31858;46.008;8.978;2022-07-03T23:50:51;94855.72;;;18.83;100.00
